createdAt,value
2019-01-24T00:00:44.219Z,27.3
2019-01-24T00:01:34.002Z,27
2019-01-24T00:02:24.392Z,26.9
2019-01-24T00:03:13.847Z,26.9
2019-01-24T00:04:03.434Z,26.8
2019-01-24T00:04:54.519Z,26.6
2019-01-24T00:05:44.310Z,27.5
2019-01-24T00:06:34.344Z,28.4
2019-01-24T00:07:24.147Z,29.1
2019-01-24T00:08:14.464Z,29.6
2019-01-24T00:09:04.296Z,30.1
2019-01-24T00:09:54.888Z,30.4
2019-01-24T00:10:44.646Z,30.8
2019-01-24T00:11:34.701Z,31.1
2019-01-24T00:12:25.033Z,31.4
2019-01-24T00:13:14.869Z,31.7
2019-01-24T00:14:04.882Z,31.9
2019-01-24T00:14:54.936Z,32.2
2019-01-24T00:15:45.006Z,32.3
2019-01-24T00:16:34.526Z,32.5
2019-01-24T00:17:25.111Z,32.5
2019-01-24T00:18:15.528Z,31.3
2019-01-24T00:19:04.935Z,29.8
2019-01-24T00:19:55.579Z,28.4
2019-01-24T00:20:44.563Z,27.6
2019-01-24T00:21:34.848Z,26.7
2019-01-24T00:22:25.459Z,25.8
2019-01-24T00:23:15.578Z,25.2
2019-01-24T00:24:05.536Z,25.3
2019-01-24T00:24:54.792Z,25.9
2019-01-24T00:25:46.860Z,27.1
2019-01-24T00:26:34.333Z,28.1
2019-01-24T00:27:25.558Z,28.9
2019-01-24T00:28:16.158Z,29.5
2019-01-24T00:29:06.193Z,30.1
2019-01-24T00:29:55.687Z,30.5
2019-01-24T00:30:45.482Z,30.9
2019-01-24T00:31:36.355Z,31.3
2019-01-24T00:32:26.180Z,31.6
2019-01-24T00:33:16.198Z,31.9
2019-01-24T00:34:06.342Z,32.3
2019-01-24T00:34:55.197Z,32.4
2019-01-24T00:35:46.391Z,32.7
2019-01-24T00:36:36.192Z,32.9
2019-01-24T00:37:26.239Z,33.1
2019-01-24T00:38:16.015Z,32.4
2019-01-24T00:39:06.644Z,31.9
2019-01-24T00:39:56.957Z,31.8
2019-01-24T00:40:46.424Z,31.6
2019-01-24T00:41:36.738Z,31.3
2019-01-24T00:42:27.162Z,30.8
2019-01-24T00:43:17.999Z,30.3
2019-01-24T00:44:06.679Z,29.7
2019-01-24T00:44:57.279Z,29.1
2019-01-24T00:45:46.574Z,28.4
2019-01-24T00:47:26.664Z,27.3
2019-01-24T00:48:17.014Z,27.1
2019-01-24T00:49:06.521Z,27.1
2019-01-24T00:49:57.404Z,26.9
2019-01-24T00:50:46.924Z,26.8
2019-01-24T00:51:37.281Z,26.9
2019-01-24T00:52:26.466Z,28
2019-01-24T00:53:17.400Z,28.8
2019-01-24T00:54:06.626Z,29.4
2019-01-24T00:54:57.459Z,30
2019-01-24T00:55:47.046Z,30.4
2019-01-24T00:56:36.769Z,30.8
2019-01-24T00:57:27.103Z,31.3
2019-01-24T00:58:16.889Z,31.6
2019-01-24T00:59:07.252Z,31.9
2019-01-24T00:59:57.849Z,32.1
2019-01-24T01:00:47.633Z,32.4
2019-01-24T01:01:39.208Z,32.6
2019-01-24T01:02:27.713Z,32.9
2019-01-24T01:03:17.494Z,33.1
2019-01-24T01:04:07.825Z,32.9
2019-01-24T01:04:57.877Z,32
2019-01-24T01:05:47.943Z,31.8
2019-01-24T01:06:38.268Z,31.8
2019-01-24T01:07:27.788Z,31.4
2019-01-24T01:08:18.916Z,31.1
2019-01-24T01:09:08.941Z,30.5
2019-01-24T01:09:58.288Z,29.9
2019-01-24T01:10:48.770Z,29.3
2019-01-24T01:11:38.625Z,28.6
2019-01-24T01:12:28.905Z,27.9
2019-01-24T01:13:18.683Z,27.4
2019-01-24T01:14:09.008Z,27.1
2019-01-24T01:14:58.679Z,27
2019-01-24T01:15:48.380Z,26.9
2019-01-24T01:16:38.730Z,26.8
2019-01-24T01:17:28.972Z,26.6
2019-01-24T01:18:19.312Z,26.8
2019-01-24T01:19:09.394Z,27.9
2019-01-24T01:19:59.674Z,28.7
2019-01-24T01:20:49.452Z,29.3
2019-01-24T01:21:39.522Z,29.9
2019-01-24T01:22:29.010Z,30.4
2019-01-24T01:23:18.820Z,30.8
2019-01-24T01:24:09.970Z,31.1
2019-01-24T01:24:59.789Z,31.5
2019-01-24T01:25:50.086Z,31.8
2019-01-24T01:26:39.356Z,32.1
2019-01-24T01:27:29.924Z,32.3
2019-01-24T01:28:18.668Z,32.6
2019-01-24T01:29:10.029Z,32.8
2019-01-24T01:30:00.233Z,33
2019-01-24T01:30:49.864Z,33.1
2019-01-24T01:31:40.186Z,32.1
2019-01-24T01:32:30.305Z,31.8
2019-01-24T01:33:20.595Z,31.7
2019-01-24T01:34:09.539Z,31.5
2019-01-24T01:35:00.434Z,31.1
2019-01-24T01:35:50.494Z,30.6
2019-01-24T01:36:40.568Z,30.1
2019-01-24T01:37:30.603Z,29.4
2019-01-24T01:38:22.036Z,28.8
2019-01-24T01:39:10.695Z,28.1
2019-01-24T01:40:00.232Z,27.5
2019-01-24T01:40:51.143Z,27.1
2019-01-24T01:41:40.391Z,27.1
2019-01-24T01:42:30.695Z,27
2019-01-24T01:43:21.003Z,26.9
2019-01-24T01:44:10.783Z,26.8
2019-01-24T01:45:00.672Z,27.1
2019-01-24T01:45:50.928Z,28.1
2019-01-24T01:46:41.225Z,28.9
2019-01-24T01:47:30.462Z,29.5
2019-01-24T01:48:21.354Z,29.9
2019-01-24T01:49:10.867Z,30.4
2019-01-24T01:50:01.815Z,30.8
2019-01-24T01:50:51.298Z,31.2
2019-01-24T01:51:41.037Z,31.4
2019-01-24T01:52:31.911Z,31.8
2019-01-24T01:53:21.705Z,32.1
2019-01-24T01:54:10.936Z,32.3
2019-01-24T01:55:01.432Z,32.4
2019-01-24T01:55:51.917Z,32.7
2019-01-24T01:56:41.964Z,32.8
2019-01-24T01:57:31.967Z,32.9
2019-01-24T01:58:22.311Z,31.9
2019-01-24T01:59:11.528Z,31.6
2019-01-24T02:00:01.936Z,31.6
2019-01-24T02:00:52.207Z,31.4
2019-01-24T02:01:42.305Z,31
2019-01-24T02:02:32.607Z,30.5
2019-01-24T02:03:22.108Z,29.9
2019-01-24T02:04:12.454Z,29.4
2019-01-24T02:05:02.317Z,28.8
2019-01-24T02:05:52.564Z,28.1
2019-01-24T02:06:42.436Z,27.6
2019-01-24T02:07:32.719Z,27.4
2019-01-24T02:08:22.454Z,27.3
2019-01-24T02:09:12.521Z,27.1
2019-01-24T02:10:02.661Z,27
2019-01-24T02:10:52.914Z,26.8
2019-01-24T02:11:43.021Z,27.2
2019-01-24T02:12:33.291Z,28.2
2019-01-24T02:13:23.358Z,28.9
2019-01-24T02:14:12.616Z,29.5
2019-01-24T02:15:03.596Z,30
2019-01-24T02:15:53.271Z,30.4
2019-01-24T02:16:43.063Z,30.8
2019-01-24T02:17:33.096Z,31.1
2019-01-24T02:18:23.411Z,31.4
2019-01-24T02:19:13.549Z,31.8
2019-01-24T02:20:03.443Z,32
2019-01-24T02:20:53.043Z,32.2
2019-01-24T02:21:43.653Z,32.4
2019-01-24T02:22:33.710Z,32.6
2019-01-24T02:23:23.497Z,32.8
2019-01-24T02:24:13.584Z,32.9
2019-01-24T02:25:04.203Z,32.2
2019-01-24T02:25:53.919Z,31.7
2019-01-24T02:26:43.532Z,31.6
2019-01-24T02:27:34.315Z,31.4
2019-01-24T02:28:24.397Z,31.1
2019-01-24T02:29:13.880Z,30.7
2019-01-24T02:30:04.566Z,30.2
2019-01-24T02:30:54.577Z,29.6
2019-01-24T02:31:44.350Z,29
2019-01-24T02:32:34.468Z,28.4
2019-01-24T02:33:24.012Z,27.8
2019-01-24T02:34:14.272Z,27.4
2019-01-24T02:35:04.932Z,27.3
2019-01-24T02:35:54.425Z,27.1
2019-01-24T02:36:44.715Z,27.1
2019-01-24T02:37:34.774Z,26.9
2019-01-24T02:38:24.574Z,27
2019-01-24T02:39:15.204Z,28
2019-01-24T02:40:05.227Z,28.8
2019-01-24T02:40:54.201Z,29.4
2019-01-24T02:41:45.354Z,29.9
2019-01-24T02:42:34.274Z,30.3
2019-01-24T02:43:24.124Z,30.7
2019-01-24T02:44:14.947Z,31
2019-01-24T02:45:05.479Z,31.4
2019-01-24T02:45:55.666Z,31.6
2019-01-24T02:46:44.634Z,31.9
2019-01-24T02:47:35.453Z,32.1
2019-01-24T02:48:25.838Z,32.4
2019-01-24T02:49:15.199Z,32.6
2019-01-24T02:50:05.841Z,32.8
2019-01-24T02:50:55.436Z,32.9
2019-01-24T02:51:45.467Z,32.8
2019-01-24T02:52:35.245Z,31.8
2019-01-24T02:53:25.568Z,31.7
2019-01-24T02:54:15.141Z,31.6
2019-01-24T02:55:06.103Z,31.3
2019-01-24T02:55:55.993Z,30.9
2019-01-24T02:56:45.803Z,30.4
2019-01-24T02:57:36.484Z,29.9
2019-01-24T02:58:26.488Z,29.3
2019-01-24T02:59:16.520Z,28.6
2019-01-24T03:00:06.682Z,28
2019-01-24T03:00:55.821Z,27.4
2019-01-24T03:01:46.410Z,27.4
2019-01-24T03:02:36.220Z,27.2
2019-01-24T03:03:26.593Z,27.1
2019-01-24T03:04:16.316Z,26.9
2019-01-24T03:05:06.435Z,26.8
2019-01-24T03:08:39.205Z,29.4
2019-01-24T03:09:29.478Z,30
2019-01-24T03:10:19.533Z,30.4
2019-01-24T03:11:09.360Z,30.8
2019-01-24T03:11:59.604Z,31.1
2019-01-24T03:12:49.959Z,31.4
2019-01-24T03:13:39.440Z,31.6
2019-01-24T03:14:29.854Z,31.9
2019-01-24T03:15:19.322Z,32.1
2019-01-24T03:16:09.635Z,32.3
2019-01-24T03:16:59.979Z,32.5
2019-01-24T03:17:50.314Z,32.7
2019-01-24T03:18:40.097Z,32.8
2019-01-24T03:19:30.224Z,32.1
2019-01-24T03:20:19.943Z,31.6
2019-01-24T03:21:10.546Z,31.6
2019-01-24T03:22:00.596Z,31.4
2019-01-24T03:22:50.387Z,31.1
2019-01-24T03:23:40.137Z,30.6
2019-01-24T03:24:30.761Z,30.1
2019-01-24T03:25:20.105Z,29.5
2019-01-24T03:26:10.601Z,28.9
2019-01-24T03:27:00.641Z,28.3
2019-01-24T03:27:50.744Z,27.7
2019-01-24T03:28:40.778Z,27.2
2019-01-24T03:29:30.248Z,27
2019-01-24T03:30:21.036Z,27
2019-01-24T03:31:10.770Z,26.9
2019-01-24T03:32:01.548Z,26.8
2019-01-24T03:32:51.105Z,26.9
2019-01-24T03:33:40.630Z,27.9
2019-01-24T03:34:31.486Z,28.7
2019-01-24T03:35:21.275Z,29.4
2019-01-24T03:36:11.562Z,29.9
2019-01-24T03:37:01.320Z,30.3
2019-01-24T03:37:50.338Z,30.6
2019-01-24T03:38:40.886Z,31
2019-01-24T03:39:31.521Z,31.3
2019-01-24T03:40:21.100Z,31.6
2019-01-24T03:41:11.408Z,31.8
2019-01-24T03:42:01.946Z,32.1
2019-01-24T03:42:51.781Z,32.3
2019-01-24T03:43:42.068Z,32.4
2019-01-24T03:44:31.617Z,32.6
2019-01-24T03:45:21.699Z,32.8
2019-01-24T03:46:12.227Z,32.8
2019-01-24T03:47:01.785Z,31.8
2019-01-24T03:47:52.115Z,31.6
2019-01-24T03:48:42.110Z,31.5
2019-01-24T03:49:31.351Z,31.3
2019-01-24T03:50:22.573Z,30.9
2019-01-24T03:51:12.370Z,30.4
2019-01-24T03:52:02.622Z,29.8
2019-01-24T03:52:52.474Z,29.3
2019-01-24T03:53:42.504Z,28.6
2019-01-24T03:54:32.880Z,28
2019-01-24T03:55:22.086Z,27.4
2019-01-24T03:56:12.617Z,27
2019-01-24T03:57:01.868Z,26.6
2019-01-24T03:57:52.584Z,26.4
2019-01-24T03:58:42.833Z,26.2
2019-01-24T03:59:32.659Z,26.1
2019-01-24T04:00:22.742Z,25.9
2019-01-24T04:01:13.341Z,25.9
2019-01-24T04:02:03.084Z,25.8
2019-01-24T04:02:52.849Z,26.3
2019-01-24T04:03:43.144Z,27.4
2019-01-24T04:04:32.408Z,28.3
2019-01-24T04:05:23.595Z,28.9
2019-01-24T04:06:13.051Z,29.5
2019-01-24T04:07:03.191Z,30
2019-01-24T04:07:53.263Z,30.4
2019-01-24T04:08:43.251Z,30.7
2019-01-24T04:09:33.594Z,31
2019-01-24T04:10:23.958Z,31.3
2019-01-24T04:11:12.841Z,31.6
2019-01-24T04:12:03.778Z,31.8
2019-01-24T04:12:54.083Z,32.1
2019-01-24T04:13:43.301Z,32.3
2019-01-24T04:14:33.634Z,32.4
2019-01-24T04:15:24.098Z,32.6
2019-01-24T04:16:14.359Z,32.8
2019-01-24T04:17:04.175Z,32.9
2019-01-24T04:17:53.906Z,32.1
2019-01-24T04:18:43.658Z,31.7
2019-01-24T04:19:34.078Z,31.6
2019-01-24T04:20:24.072Z,31.4
2019-01-24T04:21:14.357Z,31.1
2019-01-24T04:22:03.917Z,30.6
2019-01-24T04:22:54.543Z,30.1
2019-01-24T04:23:44.572Z,29.4
2019-01-24T04:24:34.582Z,28.8
2019-01-24T04:25:25.003Z,28.2
2019-01-24T04:26:14.158Z,27.6
2019-01-24T04:27:04.237Z,27.1
2019-01-24T04:27:54.710Z,26.8
2019-01-24T04:28:44.637Z,26.6
2019-01-24T04:29:34.697Z,26.4
2019-01-24T04:30:24.677Z,26.2
2019-01-24T04:31:15.033Z,26.1
2019-01-24T04:32:05.414Z,26
2019-01-24T04:32:55.214Z,25.9
2019-01-24T04:33:44.946Z,26.1
2019-01-24T04:34:35.015Z,27.1
2019-01-24T04:35:27.939Z,28.1
2019-01-24T04:36:17.292Z,28.8
2019-01-24T04:37:04.977Z,29.4
2019-01-24T04:37:55.020Z,29.9
2019-01-24T04:38:45.296Z,30.3
2019-01-24T04:39:35.636Z,30.7
2019-01-24T04:40:25.428Z,31
2019-01-24T04:41:15.499Z,31.3
2019-01-24T04:42:06.149Z,31.5
2019-01-24T04:42:55.641Z,31.8
2019-01-24T04:43:45.419Z,32
2019-01-24T04:44:35.694Z,32.2
2019-01-24T04:45:25.821Z,32.4
2019-01-24T04:46:15.801Z,32.5
2019-01-24T04:47:06.163Z,32.7
2019-01-24T04:47:55.529Z,32.8
2019-01-24T04:48:46.030Z,32.7
2019-01-24T04:49:35.333Z,31.8
2019-01-24T04:50:25.786Z,31.6
2019-01-24T04:51:15.716Z,31.5
2019-01-24T04:52:06.066Z,31.3
2019-01-24T04:52:55.845Z,30.8
2019-01-24T04:53:46.197Z,30.4
2019-01-24T04:54:35.920Z,29.8
2019-01-24T04:55:25.553Z,29.2
2019-01-24T04:56:16.129Z,28.6
2019-01-24T04:57:06.350Z,27.9
2019-01-24T04:57:58.200Z,27.4
2019-01-24T04:58:46.511Z,27
2019-01-24T04:59:36.399Z,26.7
2019-01-24T05:00:26.660Z,26.4
2019-01-24T05:01:15.654Z,26.3
2019-01-24T05:02:06.758Z,26.1
2019-01-24T05:02:56.537Z,26.1
2019-01-24T05:03:46.813Z,25.9
2019-01-24T05:04:36.325Z,25.9
2019-01-24T05:05:34.496Z,26.3
2019-01-24T05:06:17.200Z,27.6
2019-01-24T05:07:07.427Z,28.2
2019-01-24T05:07:56.889Z,28.8
2019-01-24T05:08:46.677Z,29.4
2019-01-24T05:09:36.584Z,29.8
2019-01-24T05:10:27.697Z,30.2
2019-01-24T05:11:17.067Z,30.6
2019-01-24T05:12:07.155Z,30.9
2019-01-24T05:12:58.018Z,31.2
2019-01-24T05:13:47.499Z,31.4
2019-01-24T05:14:38.035Z,31.7
2019-01-24T05:15:27.857Z,31.9
2019-01-24T05:16:18.192Z,32.2
2019-01-24T05:17:07.672Z,32.4
2019-01-24T05:17:58.062Z,32.6
2019-01-24T05:18:48.069Z,32.8
2019-01-24T05:19:38.122Z,32.9
2019-01-24T05:20:28.231Z,32.6
2019-01-24T05:21:18.502Z,31.8
2019-01-24T05:22:08.838Z,31.6
2019-01-24T05:22:58.424Z,31.5
2019-01-24T05:23:49.001Z,31.2
2019-01-24T05:24:38.997Z,30.8
2019-01-24T05:25:29.089Z,30.2
2019-01-24T05:26:18.627Z,29.6
2019-01-24T05:27:08.374Z,29
2019-01-24T05:27:59.070Z,28.4
2019-01-24T05:28:48.767Z,27.8
2019-01-24T05:29:38.525Z,27.3
2019-01-24T05:30:28.917Z,26.9
2019-01-24T05:31:19.226Z,26.6
2019-01-24T05:32:08.986Z,26.3
2019-01-24T05:33:00.648Z,26.1
2019-01-24T05:33:49.439Z,26
2019-01-24T05:34:39.718Z,25.9
2019-01-24T05:35:36.635Z,25.8
2019-01-24T05:36:19.822Z,25.9
2019-01-24T05:37:09.339Z,26.7
2019-01-24T05:37:59.976Z,27.6
2019-01-24T05:38:50.005Z,28.4
2019-01-24T05:39:40.051Z,28.9
2019-01-24T05:40:29.851Z,29.4
2019-01-24T05:41:20.186Z,29.9
2019-01-24T05:42:09.694Z,30.3
2019-01-24T05:42:59.821Z,30.6
2019-01-24T05:43:50.354Z,30.9
2019-01-24T05:44:40.454Z,31.2
2019-01-24T05:45:30.461Z,31.4
2019-01-24T05:46:19.953Z,31.6
2019-01-24T05:47:10.296Z,31.9
2019-01-24T05:48:00.367Z,31.9
2019-01-24T05:48:50.099Z,30.9
2019-01-24T05:49:40.426Z,29.6
2019-01-24T05:50:32.062Z,28.2
2019-01-24T05:51:20.546Z,27.3
2019-01-24T05:52:10.646Z,26.4
2019-01-24T05:53:00.413Z,25.5
2019-01-24T05:53:50.787Z,24.8
2019-01-24T05:54:40.522Z,24.3
2019-01-24T05:55:30.571Z,24.3
2019-01-24T05:56:20.612Z,24.9
2019-01-24T05:57:10.973Z,26.3
2019-01-24T05:58:01.043Z,27.3
2019-01-24T05:58:50.800Z,28.1
2019-01-24T05:59:41.125Z,28.9
2019-01-24T06:00:30.650Z,29.4
2019-01-24T06:01:21.234Z,29.9
2019-01-24T06:02:11.593Z,30.4
2019-01-24T06:03:01.341Z,30.8
2019-01-24T06:03:51.400Z,31.1
2019-01-24T06:06:38.929Z,32.1
2019-01-24T06:07:30.762Z,32.4
2019-01-24T06:08:19.092Z,32.6
2019-01-24T06:09:09.669Z,32.8
2019-01-24T06:09:59.426Z,33.1
2019-01-24T06:10:49.517Z,32.9
2019-01-24T06:11:39.009Z,32
2019-01-24T06:12:31.324Z,31.9
2019-01-24T06:13:19.429Z,31.7
2019-01-24T06:14:09.760Z,31.4
2019-01-24T06:14:59.564Z,30.9
2019-01-24T06:15:49.302Z,30.4
2019-01-24T06:16:39.631Z,29.9
2019-01-24T06:17:29.666Z,29.3
2019-01-24T06:18:19.741Z,28.6
2019-01-24T06:19:10.107Z,28
2019-01-24T06:19:59.884Z,27.4
2019-01-24T06:20:49.936Z,26.9
2019-01-24T06:21:40.534Z,26.5
2019-01-24T06:22:30.324Z,26.3
2019-01-24T06:23:19.713Z,26.1
2019-01-24T06:24:10.412Z,25.9
2019-01-24T06:25:00.456Z,25.7
2019-01-24T06:25:50.276Z,25.6
2019-01-24T06:26:40.379Z,25.7
2019-01-24T06:27:30.915Z,26.4
2019-01-24T06:28:20.251Z,27.5
2019-01-24T06:29:10.281Z,28.3
2019-01-24T06:30:00.721Z,28.9
2019-01-24T06:30:49.821Z,29.6
2019-01-24T06:31:40.149Z,30.1
2019-01-24T06:32:31.281Z,30.5
2019-01-24T06:33:21.051Z,30.9
2019-01-24T06:34:11.413Z,31.3
2019-01-24T06:35:00.953Z,31.5
2019-01-24T06:35:56.758Z,31.9
2019-01-24T06:36:41.288Z,32.2
2019-01-24T06:37:31.088Z,32.4
2019-01-24T06:38:21.353Z,32.6
2019-01-24T06:39:11.418Z,32.8
2019-01-24T06:40:01.513Z,33
2019-01-24T06:40:51.261Z,33.2
2019-01-24T06:41:40.515Z,32.3
2019-01-24T06:42:31.392Z,31.9
2019-01-24T06:43:21.167Z,31.8
2019-01-24T06:44:11.484Z,31.6
2019-01-24T06:45:02.174Z,31.2
2019-01-24T06:45:51.604Z,30.7
2019-01-24T06:46:41.700Z,30.2
2019-01-24T06:47:32.014Z,29.6
2019-01-24T06:48:21.529Z,28.9
2019-01-24T06:49:12.425Z,28.3
2019-01-24T06:50:02.275Z,27.7
2019-01-24T06:50:52.513Z,27.1
2019-01-24T06:51:42.012Z,26.8
2019-01-24T06:52:32.327Z,26.4
2019-01-24T06:53:21.557Z,26.2
2019-01-24T06:54:12.430Z,26.1
2019-01-24T06:55:02.819Z,25.9
2019-01-24T06:55:52.576Z,25.8
2019-01-24T06:56:41.877Z,25.7
2019-01-24T06:57:32.247Z,25.9
2019-01-24T06:58:22.266Z,27
2019-01-24T06:59:12.042Z,27.9
2019-01-24T07:00:01.622Z,28.7
2019-01-24T07:00:52.436Z,29.3
2019-01-24T07:01:42.976Z,29.8
2019-01-24T07:02:31.896Z,30.3
2019-01-24T07:03:23.159Z,30.7
2019-01-24T07:04:13.130Z,31.1
2019-01-24T07:06:38.549Z,31.9
2019-01-24T07:07:28.304Z,32.3
2019-01-24T07:08:18.931Z,32.6
2019-01-24T07:09:09.274Z,32.8
2019-01-24T07:09:59.326Z,33
2019-01-24T07:10:48.836Z,33.2
2019-01-24T07:11:38.950Z,32.9
2019-01-24T07:12:29.508Z,32.1
2019-01-24T07:13:19.283Z,31.9
2019-01-24T07:14:09.335Z,31.8
2019-01-24T07:14:59.398Z,31.5
2019-01-24T07:15:49.487Z,31.1
2019-01-24T07:16:39.556Z,30.4
2019-01-24T07:17:29.055Z,29.9
2019-01-24T07:18:20.153Z,29.5
2019-01-24T07:19:08.846Z,29.1
2019-01-24T07:19:59.540Z,28.9
2019-01-24T07:20:49.540Z,28.6
2019-01-24T07:21:39.560Z,28.5
2019-01-24T07:22:30.178Z,28.4
2019-01-24T07:23:19.950Z,28.3
2019-01-24T07:24:09.252Z,28.2
2019-01-24T07:25:00.140Z,28.1
2019-01-24T07:25:49.585Z,28.1
2019-01-24T07:26:40.457Z,28
2019-01-24T07:27:29.682Z,27.6
2019-01-24T07:28:20.055Z,28
2019-01-24T07:29:10.116Z,28.8
2019-01-24T07:30:00.176Z,29.3
2019-01-24T07:30:49.965Z,29.8
2019-01-24T07:31:40.862Z,30.2
2019-01-24T07:32:30.037Z,30.6
2019-01-24T07:33:20.389Z,30.9
2019-01-24T07:34:10.972Z,31.2
2019-01-24T07:35:00.207Z,31.6
2019-01-24T07:35:50.573Z,31.8
2019-01-24T07:36:41.151Z,32.1
2019-01-24T07:37:31.541Z,32.3
2019-01-24T07:38:20.987Z,32.6
2019-01-24T07:39:11.319Z,32.8
2019-01-24T07:40:00.917Z,33
2019-01-24T07:40:50.924Z,33.2
2019-01-24T07:41:40.650Z,32.3
2019-01-24T07:42:29.889Z,31.9
2019-01-24T07:43:22.724Z,31.8
2019-01-24T07:44:11.416Z,31.6
2019-01-24T07:45:01.469Z,31.2
2019-01-24T07:45:51.243Z,30.7
2019-01-24T07:46:41.019Z,30.2
2019-01-24T07:47:31.106Z,29.7
2019-01-24T07:48:21.686Z,29.4
2019-01-24T07:49:11.468Z,29.1
2019-01-24T07:50:01.678Z,28.9
2019-01-24T07:50:52.136Z,28.8
2019-01-24T07:51:41.621Z,28.6
2019-01-24T07:52:32.523Z,28.4
2019-01-24T07:53:21.756Z,28.4
2019-01-24T07:54:11.524Z,28.3
2019-01-24T07:55:02.710Z,28.3
2019-01-24T07:55:51.926Z,28.3
2019-01-24T07:56:41.715Z,28.1
2019-01-24T07:57:32.038Z,27.9
2019-01-24T07:58:22.191Z,28.6
2019-01-24T07:59:12.430Z,29.3
2019-01-24T08:00:02.573Z,29.7
2019-01-24T08:00:51.709Z,30.1
2019-01-24T08:01:42.863Z,30.5
2019-01-24T08:02:31.830Z,30.8
2019-01-24T08:03:21.617Z,31.1
2019-01-24T08:04:12.809Z,31.4
2019-01-24T08:05:03.113Z,31.7
2019-01-24T08:05:53.165Z,32
2019-01-24T08:06:42.695Z,32.2
2019-01-24T08:07:32.785Z,32.4
2019-01-24T08:08:21.977Z,32.6
2019-01-24T08:09:13.714Z,32.8
2019-01-24T08:10:03.010Z,33
2019-01-24T08:10:53.227Z,33.2
2019-01-24T08:11:42.167Z,32.3
2019-01-24T08:12:33.341Z,31.9
2019-01-24T08:13:22.844Z,31.8
2019-01-24T08:14:13.442Z,31.6
2019-01-24T08:15:03.027Z,31.2
2019-01-24T08:15:53.305Z,30.7
2019-01-24T08:16:43.955Z,30.1
2019-01-24T08:17:33.109Z,29.6
2019-01-24T08:18:23.475Z,29.3
2019-01-24T08:19:13.261Z,29.1
2019-01-24T08:20:03.329Z,28.8
2019-01-24T08:20:53.948Z,28.7
2019-01-24T08:21:44.245Z,28.5
2019-01-24T08:22:34.336Z,28.4
2019-01-24T08:23:24.676Z,28.4
2019-01-24T08:24:14.419Z,28.3
2019-01-24T08:25:04.018Z,28.2
2019-01-24T08:25:54.242Z,28.2
2019-01-24T08:26:44.891Z,28
2019-01-24T08:27:35.821Z,27.9
2019-01-24T08:28:24.764Z,28.6
2019-01-24T08:29:13.441Z,29.2
2019-01-24T08:30:04.295Z,29.6
2019-01-24T08:30:54.596Z,30.1
2019-01-24T08:31:44.648Z,30.5
2019-01-24T08:32:34.721Z,30.8
2019-01-24T08:33:23.993Z,31.1
2019-01-24T08:34:14.835Z,31.4
2019-01-24T08:35:04.893Z,31.7
2019-01-24T08:35:54.678Z,32
2019-01-24T08:36:44.443Z,32.2
2019-01-24T08:37:34.783Z,32.4
2019-01-24T08:38:24.287Z,32.7
2019-01-24T08:39:15.447Z,32.9
2019-01-24T08:40:05.156Z,33.1
2019-01-24T08:40:54.733Z,32.9
2019-01-24T08:41:45.633Z,32
2019-01-24T08:42:35.143Z,31.8
2019-01-24T08:43:25.465Z,31.7
2019-01-24T08:44:15.568Z,31.4
2019-01-24T08:45:05.327Z,31
2019-01-24T08:45:55.070Z,30.5
2019-01-24T08:46:45.425Z,29.9
2019-01-24T08:47:35.469Z,29.5
2019-01-24T08:48:25.531Z,29.2
2019-01-24T08:49:15.309Z,29
2019-01-24T08:50:05.677Z,28.8
2019-01-24T08:50:56.252Z,28.6
2019-01-24T08:51:46.354Z,28.4
2019-01-24T08:52:36.432Z,28.4
2019-01-24T08:53:25.942Z,28.3
2019-01-24T08:54:16.532Z,28.3
2019-01-24T08:55:05.284Z,28.2
2019-01-24T08:55:56.343Z,28.2
2019-01-24T08:57:36.447Z,28.2
2019-01-24T08:58:26.514Z,28.9
2019-01-24T08:59:16.532Z,29.4
2019-01-24T09:00:06.514Z,29.9
2019-01-24T09:00:56.699Z,30.3
2019-01-24T09:01:46.725Z,30.7
2019-01-24T09:02:36.520Z,30.9
2019-01-24T09:03:26.865Z,31.3
2019-01-24T09:04:17.182Z,31.6
2019-01-24T09:05:06.951Z,31.9
2019-01-24T09:05:57.286Z,32.1
2019-01-24T09:06:46.851Z,32.3
2019-01-24T09:07:37.431Z,32.6
2019-01-24T09:08:27.186Z,32.8
2019-01-24T09:09:17.534Z,32.9
2019-01-24T09:10:07.703Z,33.1
2019-01-24T09:10:57.076Z,32.9
2019-01-24T09:11:47.685Z,32
2019-01-24T09:12:38.428Z,31.9
2019-01-24T09:13:27.251Z,31.8
2019-01-24T09:14:17.858Z,31.4
2019-01-24T09:15:07.021Z,31
2019-01-24T09:15:56.854Z,30.5
2019-01-24T09:16:47.189Z,29.9
2019-01-24T09:17:38.369Z,29.5
2019-01-24T09:18:28.180Z,29.2
2019-01-24T09:19:18.202Z,28.9
2019-01-24T09:20:07.801Z,28.8
2019-01-24T09:20:59.078Z,28.6
2019-01-24T09:21:48.656Z,28.4
2019-01-24T09:22:38.477Z,28.4
2019-01-24T09:23:28.800Z,28.3
2019-01-24T09:24:18.563Z,28.2
2019-01-24T09:25:08.922Z,28.1
2019-01-24T09:25:57.842Z,28.1
2019-01-24T09:27:38.693Z,28.1
2019-01-24T09:28:28.247Z,28.8
2019-01-24T09:29:18.888Z,29.4
2019-01-24T09:30:08.209Z,29.8
2019-01-24T09:30:58.175Z,30.3
2019-01-24T09:31:48.542Z,30.6
2019-01-24T09:32:38.897Z,30.9
2019-01-24T09:33:28.932Z,31.3
2019-01-24T09:34:18.657Z,31.6
2019-01-24T09:35:09.334Z,31.9
2019-01-24T09:35:58.792Z,32.1
2019-01-24T09:36:49.162Z,32.4
2019-01-24T09:37:38.356Z,32.6
2019-01-24T09:38:29.512Z,32.8
2019-01-24T09:39:18.754Z,32.9
2019-01-24T09:40:09.354Z,33.1
2019-01-24T09:40:58.569Z,32.4
2019-01-24T09:41:49.504Z,31.9
2019-01-24T09:42:39.256Z,31.8
2019-01-24T09:43:29.091Z,31.6
2019-01-24T09:44:19.351Z,31.3
2019-01-24T09:45:09.149Z,30.8
2019-01-24T09:45:59.534Z,30.3
2019-01-24T09:46:50.086Z,29.7
2019-01-24T09:47:40.431Z,29.3
2019-01-24T09:48:29.449Z,28.9
2019-01-24T09:49:19.691Z,28.8
2019-01-24T09:50:10.029Z,28.6
2019-01-24T09:51:00.106Z,28.4
2019-01-24T09:51:49.944Z,28.3
2019-01-24T09:52:40.263Z,28.2
2019-01-24T09:53:30.813Z,28.1
2019-01-24T09:54:20.053Z,28.1
2019-01-24T09:55:11.301Z,28
2019-01-24T09:56:00.711Z,27.9
2019-01-24T09:56:50.505Z,27.8
2019-01-24T09:57:39.733Z,28.4
2019-01-24T09:58:30.891Z,29.1
2019-01-24T09:59:20.955Z,29.6
2019-01-24T10:00:11.016Z,30.1
2019-01-24T10:01:00.865Z,30.4
2019-01-24T10:01:50.568Z,30.8
2019-01-24T10:02:41.233Z,31.2
2019-01-24T10:03:31.252Z,31.5
2019-01-24T10:04:20.833Z,31.8
2019-01-24T10:05:11.073Z,32.1
2019-01-24T10:07:37.295Z,32.6
2019-01-24T10:08:28.547Z,32.9
2019-01-24T10:09:18.487Z,33.1
2019-01-24T10:10:08.134Z,33
2019-01-24T10:10:58.477Z,32.1
2019-01-24T10:11:47.439Z,31.9
2019-01-24T10:12:38.534Z,31.8
2019-01-24T10:13:28.827Z,31.5
2019-01-24T10:14:18.960Z,31
2019-01-24T10:15:08.629Z,30.4
2019-01-24T10:15:58.457Z,29.8
2019-01-24T10:16:49.350Z,29.1
2019-01-24T10:17:40.466Z,28.3
2019-01-24T10:18:29.202Z,27.6
2019-01-24T10:19:19.214Z,27.1
2019-01-24T10:20:09.532Z,26.8
2019-01-24T10:20:58.471Z,26.5
2019-01-24T10:21:49.451Z,26.3
2019-01-24T10:22:39.782Z,26.1
2019-01-24T10:23:28.966Z,25.9
2019-01-24T10:24:19.339Z,25.9
2019-01-24T10:25:09.496Z,25.8
2019-01-24T10:25:59.454Z,25.9
2019-01-24T10:26:49.828Z,26.3
2019-01-24T10:27:38.973Z,27.4
2019-01-24T10:28:30.366Z,28.3
2019-01-24T10:29:18.543Z,29
2019-01-24T10:30:09.460Z,29.6
2019-01-24T10:30:59.556Z,30.1
2019-01-24T10:31:51.776Z,30.5
2019-01-24T10:32:39.078Z,30.9
2019-01-24T10:33:29.676Z,31.3
2019-01-24T10:34:19.754Z,31.6
2019-01-24T10:35:09.598Z,31.9
2019-01-24T10:35:59.578Z,32.1
2019-01-24T10:36:49.603Z,32.4
2019-01-24T10:37:39.980Z,32.6
2019-01-24T10:38:30.570Z,32.9
2019-01-24T10:39:20.449Z,33.1
2019-01-24T10:40:10.026Z,33.1
2019-01-24T10:41:00.503Z,32.1
2019-01-24T10:41:50.602Z,31.9
2019-01-24T10:42:41.185Z,31.8
2019-01-24T10:43:30.365Z,31.5
2019-01-24T10:44:20.964Z,31.1
2019-01-24T10:45:10.474Z,30.6
2019-01-24T10:46:00.242Z,30.1
2019-01-24T10:46:50.895Z,29.4
2019-01-24T10:47:40.923Z,28.8
2019-01-24T10:48:30.980Z,28.1
2019-01-24T10:49:20.769Z,27.6
2019-01-24T10:50:10.829Z,27.1
2019-01-24T10:51:01.467Z,26.7
2019-01-24T10:51:50.669Z,26.4
2019-01-24T10:52:41.296Z,26.2
2019-01-24T10:53:31.624Z,26
2019-01-24T10:54:21.722Z,25.9
2019-01-24T10:55:18.380Z,25.8
2019-01-24T10:56:01.792Z,25.8
2019-01-24T10:56:51.296Z,26.3
2019-01-24T10:57:42.189Z,27.4
2019-01-24T10:58:32.019Z,28.3
2019-01-24T10:59:22.109Z,29
2019-01-24T11:00:11.807Z,29.5
2019-01-24T11:01:01.316Z,30
2019-01-24T11:01:51.637Z,30.4
2019-01-24T11:02:42.270Z,30.9
2019-01-24T11:03:32.234Z,31.2
2019-01-24T11:04:21.339Z,31.5
2019-01-24T11:05:11.879Z,31.8
2019-01-24T11:06:02.217Z,32.1
2019-01-24T11:06:56.616Z,32.3
2019-01-24T11:07:43.061Z,32.6
2019-01-24T11:08:32.297Z,32.8
2019-01-24T11:09:22.971Z,33
2019-01-24T11:10:14.018Z,33.1
2019-01-24T11:11:02.573Z,32.3
2019-01-24T11:11:53.636Z,31.9
2019-01-24T11:12:42.855Z,31.8
2019-01-24T11:13:32.498Z,31.6
2019-01-24T11:14:22.715Z,31.2
2019-01-24T11:15:12.546Z,30.7
2019-01-24T11:16:03.100Z,30.2
2019-01-24T11:16:52.948Z,29.6
2019-01-24T11:17:43.288Z,28.9
2019-01-24T11:18:32.785Z,28.3
2019-01-24T11:19:22.273Z,27.7
2019-01-24T11:20:12.431Z,27.1